Time;durP1;ratioP1;P1;durP2;ratioP2;P2;SDS_P1;SDS_P2;PMS_P1;PMS_P2;Temp;Humidity;BMP_temperature;BMP_pressure;BME280_temperature;BME280_humidity;BME280_pressure;Samples;Min_cycle;Max_cycle;Signal;HPM_P1;HPM_P2
2021/05/28 00:02:17;;;;;;;3.00;2.80;;;;;;;;;;5114671;28;20406;-73
2021/05/28 00:04:43;;;;;;;2.50;2.27;;;;;;;;;;5096186;28;20445;-74
2021/05/28 00:07:09;;;;;;;2.17;1.90;;;12.60;29.20;;;;;;5114576;28;20430;-74
2021/05/28 00:09:35;;;;;;;2.30;2.03;;;12.30;31.80;;;;;;5114302;28;20410;-74
2021/05/28 00:12:01;;;;;;;2.30;2.10;;;12.30;31.50;;;;;;5096391;28;20420;-73
2021/05/28 00:14:26;;;;;;;2.93;2.30;;;12.20;31.30;;;;;;5114337;28;20287;-74
2021/05/28 00:16:52;;;;;;;4.67;2.40;;;;;;;;;;5114685;28;20165;-73
2021/05/28 00:19:18;;;;;;;2.30;2.10;;;;;;;;;;5114439;28;20177;-73
2021/05/28 00:21:44;;;;;;;2.80;2.60;;;;;;;;;;5114697;28;20963;-72
2021/05/28 00:24:10;;;;;;;3.87;2.30;;;;;;;;;;5114333;28;20429;-72
2021/05/28 00:26:36;;;;;;;3.70;2.73;;;;;;;;;;5095967;28;20408;-72
2021/05/28 00:29:02;;;;;;;2.30;2.10;;;;;;;;;;5096165;28;20613;-72
2021/05/28 00:31:28;;;;;;;2.60;1.87;;;;;;;;;;5114841;28;20413;-72
2021/05/28 00:33:54;;;;;;;3.03;2.60;;;;;;;;;;5114473;28;20580;-72
2021/05/28 00:36:20;;;;;;;2.50;1.47;;;;;;;;;;5096608;28;20510;-72
2021/05/28 00:38:46;;;;;;;2.20;2.00;;;;;;;;;;5114501;28;20421;-72
2021/05/28 00:41:13;;;;;;;2.30;2.10;;;12.30;31.90;;;;;;5114256;28;20415;-72
2021/05/28 00:43:39;;;;;;;2.13;1.93;;;12.20;31.80;;;;;;5095684;28;20413;-72
2021/05/28 00:46:04;;;;;;;5.87;2.90;;;12.20;31.90;;;;;;5114106;28;20453;-72
2021/05/28 00:48:30;;;;;;;2.97;2.30;;;12.20;32.40;;;;;;5095776;28;20208;-73
2021/05/28 00:50:56;;;;;;;2.90;2.30;;;12.20;33.00;;;;;;5113757;28;20179;-73
2021/05/28 00:53:24;;;;;;;2.13;2.03;;;12.20;32.90;;;;;;5113885;28;20185;-72
2021/05/28 00:55:50;;;;;;;2.47;2.10;;;12.20;32.90;;;;;;5113955;28;20496;-73
2021/05/28 00:58:17;;;;;;;3.73;2.17;;;12.20;32.90;;;;;;5095634;28;20499;-73
2021/05/28 01:00:43;;;;;;;2.83;2.10;;;12.20;32.90;;;;;;5113678;28;20413;-72
2021/05/28 01:03:09;;;;;;;2.93;1.87;;;12.10;32.80;;;;;;5113877;28;20410;-72
2021/05/28 01:05:35;;;;;;;2.53;2.00;;;12.10;32.90;;;;;;5113927;28;20541;-73
2021/05/28 01:08:00;;;;;;;2.17;1.97;;;12.10;32.40;;;;;;5113844;28;20934;-72
2021/05/28 01:10:26;;;;;;;4.27;2.40;;;11.90;33.60;;;;;;5095381;28;20256;-73
2021/05/28 01:12:52;;;;;;;2.27;2.07;;;11.80;32.60;;;;;;5113836;28;20468;-74
2021/05/28 01:15:18;;;;;;;2.93;2.63;;;11.80;32.60;;;;;;5095469;28;20214;-75
2021/05/28 01:17:43;;;;;;;2.83;2.63;;;11.70;32.50;;;;;;5113825;28;20182;-74
2021/05/28 01:20:10;;;;;;;2.73;2.53;;;11.70;32.40;;;;;;5113591;28;20900;-75
2021/05/28 01:22:37;;;;;;;3.47;3.13;;;11.60;32.40;;;;;;5113619;28;20181;-75
2021/05/28 01:25:03;;;;;;;2.80;2.50;;;11.60;32.80;;;;;;5113878;28;20495;-74
2021/05/28 01:27:29;;;;;;;4.50;2.67;;;11.60;32.70;;;;;;5095193;28;20513;-76
2021/05/28 01:29:55;;;;;;;2.83;2.60;;;11.60;33.00;;;;;;5094887;28;20822;-75
2021/05/28 01:32:21;;;;;;;4.27;2.73;;;11.60;33.20;;;;;;5113316;28;20170;-75
2021/05/28 01:34:47;;;;;;;3.57;3.27;;;11.50;33.30;;;;;;5113178;28;20482;-75
2021/05/28 01:37:12;;;;;;;4.90;3.40;;;11.50;33.70;;;;;;5113331;28;20206;-75
2021/05/28 01:39:46;;;;;;;2.73;2.20;;;11.40;34.00;;;;;;5094534;28;20461;-75
2021/05/28 01:42:12;;;;;;;3.90;3.00;;;11.40;34.40;;;;;;5113734;28;20175;-75
2021/05/28 01:44:38;;;;;;;9.47;2.93;;;11.40;34.50;;;;;;5113769;28;20485;-73
2021/05/28 01:47:04;;;;;;;3.30;3.00;;;11.40;34.70;;;;;;5113950;28;20530;-75
2021/05/28 01:49:29;;;;;;;4.00;2.60;;;11.50;34.80;;;;;;5112810;28;20187;-76
2021/05/28 01:51:55;;;;;;;3.93;2.40;;;11.40;35.10;;;;;;5112909;28;20402;-72
2021/05/28 01:54:22;;;;;;;3.33;2.90;;;11.50;35.00;;;;;;5112837;28;20203;-73
2021/05/28 01:56:48;;;;;;;3.37;2.50;;;11.50;35.00;;;;;;5112640;28;20270;-73
2021/05/28 01:59:24;;;;;;;3.57;3.27;;;11.60;35.00;;;;;;5094581;28;20964;-73
2021/05/28 02:01:50;;;;;;;4.80;3.70;;;11.60;35.00;;;;;;5112640;28;20407;-73
2021/05/28 02:04:16;;;;;;;5.87;5.27;;;11.60;35.00;;;;;;5094357;28;20473;-75
2021/05/28 02:06:41;;;;;;;4.30;3.90;;;11.70;35.00;;;;;;5112861;28;20427;-72
2021/05/28 02:09:07;;;;;;;5.07;4.10;;;11.70;35.20;;;;;;5094215;28;20211;-74
2021/05/28 02:11:32;;;;;;;6.23;4.50;;;11.70;35.30;;;;;;5094099;28;20177;-74
2021/05/28 02:13:58;;;;;;;4.37;4.07;;;11.60;35.50;;;;;;5094139;28;20182;-75
2021/05/28 02:16:23;;;;;;;8.20;4.50;;;11.60;36.20;;;;;;5112416;28;20178;-74
2021/05/28 02:18:49;;;;;;;3.40;3.10;;;11.50;36.50;;;;;;5112409;28;20546;-75
2021/05/28 02:21:14;;;;;;;6.57;5.37;;;11.40;36.70;;;;;;5112590;28;20218;-75
2021/05/28 02:23:40;;;;;;;6.67;5.37;;;11.40;37.50;;;;;;5094295;28;20220;-73
2021/05/28 02:26:06;;;;;;;5.13;4.57;;;11.40;37.40;;;;;;5094026;28;20200;-73
2021/05/28 02:28:31;;;;;;;5.60;5.07;;;11.40;37.50;;;;;;5112404;28;20210;-75
2021/05/28 02:30:57;;;;;;;5.90;5.43;;;11.40;37.90;;;;;;5112030;28;20232;-75
2021/05/28 02:33:22;;;;;;;6.93;5.83;;;11.30;38.30;;;;;;5112187;28;20533;-74
2021/05/28 02:35:48;;;;;;;5.93;5.40;;;11.30;38.80;;;;;;5111910;28;20683;-73
2021/05/28 02:38:13;;;;;;;7.47;6.33;;;11.20;39.10;;;;;;5094098;28;20278;-75
2021/05/28 02:40:39;;;;;;;6.97;6.10;;;11.10;39.90;;;;;;5111834;28;20189;-74
2021/05/28 02:43:04;;;;;;;7.40;6.73;;;11.10;40.60;;;;;;5112361;28;20183;-74
2021/05/28 02:45:30;;;;;;;6.47;6.00;;;11.00;41.00;;;;;;5112119;28;20202;-73
2021/05/28 02:47:57;;;;;;;8.33;7.00;;;11.00;41.20;;;;;;5112139;28;20549;-73
2021/05/28 02:50:23;;;;;;;6.17;5.60;;;11.10;41.10;;;;;;5111772;28;20172;-74
2021/05/28 02:52:49;;;;;;;6.33;5.43;;;11.20;41.00;;;;;;5111657;28;20472;-75
2021/05/28 02:55:14;;;;;;;7.30;6.60;;;11.20;40.80;;;;;;5111608;28;20487;-74
2021/05/28 02:57:40;;;;;;;6.70;6.03;;;11.30;40.70;;;;;;5093689;28;20607;-75
2021/05/28 03:00:07;;;;;;;6.77;6.17;;;11.30;40.60;;;;;;5111447;28;20640;-75
2021/05/28 03:02:32;;;;;;;6.10;5.60;;;11.30;40.50;;;;;;5111731;28;20190;-73
2021/05/28 03:04:58;;;;;;;8.33;7.53;;;11.20;40.50;;;;;;5093098;28;20449;-74
2021/05/28 03:07:23;;;;;;;6.50;5.87;;;11.30;40.40;;;;;;5093351;28;20979;-75
2021/05/28 03:09:49;;;;;;;9.83;6.10;;;11.20;40.40;;;;;;5111352;28;20186;-75
2021/05/28 03:12:15;;;;;;;8.50;7.60;;;11.20;40.90;;;;;;5093059;28;20191;-74
2021/05/28 03:14:40;;;;;;;7.67;6.97;;;11.10;41.50;;;;;;5111131;28;20211;-74
2021/05/28 03:17:06;;;;;;;10.13;8.77;;;11.10;41.90;;;;;;5111371;28;20177;-75
2021/05/28 03:19:42;;;;;;;8.27;7.57;;;11.10;42.10;;;;;;5111014;28;20339;-74
2021/05/28 03:24:54;;;;;;;7.00;6.40;;;11.20;41.80;;;;;;5113311;28;20959;-75
2021/05/28 03:27:20;;;;;;;6.70;6.10;;;11.20;42.00;;;;;;5115398;28;20407;-74
2021/05/28 03:29:45;;;;;;;6.07;5.57;;;11.20;41.70;;;;;;5115125;28;20178;-75
2021/05/28 03:32:11;;;;;;;5.73;5.23;;;11.20;41.60;;;;;;5115426;28;20184;-74
2021/05/28 03:34:36;;;;;;;7.13;6.53;;;11.20;41.60;;;;;;5115113;28;20288;-75
2021/05/28 03:37:03;;;;;;;8.77;7.20;;;11.30;41.60;;;;;;5097250;28;20548;-74
2021/05/28 03:39:29;;;;;;;6.70;6.00;;;11.30;41.60;;;;;;5114855;28;20194;-73
2021/05/28 03:41:55;;;;;;;10.80;5.40;;;11.30;41.60;;;;;;5115132;28;20441;-75
2021/05/28 03:44:20;;;;;;;7.20;6.50;;;11.30;41.20;;;;;;5115016;28;20199;-74
2021/05/28 03:46:46;;;;;;;6.90;6.40;;;11.30;41.10;;;;;;5115174;28;20641;-74
2021/05/28 03:49:11;;;;;;;6.03;5.57;;;11.20;41.10;;;;;;5114782;28;20200;-73
2021/05/28 03:51:37;;;;;;;4.33;3.93;;;11.00;41.00;;;;;;5115053;28;20208;-74
2021/05/28 03:54:03;;;;;;;8.20;4.27;;;10.90;40.30;;;;;;5114881;28;20178;-74
2021/05/28 03:56:28;;;;;;;4.33;3.93;;;10.90;40.80;;;;;;5114987;28;20228;-74
2021/05/28 03:58:54;;;;;;;4.60;3.33;;;10.80;40.60;;;;;;5114577;28;20759;-74
2021/05/28 04:01:19;;;;;;;4.67;4.27;;;10.80;40.00;;;;;;5115342;28;20178;-74
2021/05/28 04:03:45;;;;;;;4.03;3.43;;;10.80;39.80;;;;;;5114718;28;20230;-74
2021/05/28 04:06:11;;;;;;;4.07;3.77;;;10.80;39.90;;;;;;5114697;28;20196;-74
2021/05/28 04:08:36;;;;;;;3.30;3.00;;;10.80;40.00;;;;;;5114485;28;20292;-74
2021/05/28 04:11:02;;;;;;;2.87;2.30;;;10.80;39.60;;;;;;5114921;28;20184;-72
2021/05/28 04:13:32;;;;;;;2.73;2.53;;;10.80;39.10;;;;;;5114779;28;20181;-73
2021/05/28 04:15:59;;;;;;;4.03;3.63;;;10.90;38.70;;;;;;5114699;28;20206;-73
2021/05/28 04:18:25;;;;;;;4.93;3.50;;;10.90;38.90;;;;;;5114795;28;20417;-73
2021/05/28 04:20:51;;;;;;;5.03;3.90;;;10.90;38.60;;;;;;5114646;28;20509;-71
2021/05/28 04:23:16;;;;;;;3.80;3.50;;;11.00;37.80;;;;;;5114637;28;20440;-73
2021/05/28 04:25:42;;;;;;;4.73;3.90;;;11.10;37.40;;;;;;5094823;28;20986;-71
2021/05/28 04:28:07;;;;;;;5.70;3.90;;;11.20;37.70;;;;;;5093927;28;20198;-73
2021/05/28 04:30:33;;;;;;;5.40;4.50;;;11.30;37.30;;;;;;5093754;28;20186;-73
2021/05/28 04:32:58;;;;;;;7.10;3.50;;;11.40;37.40;;;;;;5096579;28;20692;-74
2021/05/28 04:35:24;;;;;;;5.20;4.70;;;11.40;37.40;;;;;;5074961;28;20702;-72
2021/05/28 04:37:50;;;;;;;5.70;4.47;;;11.40;37.40;;;;;;5092468;28;20181;-74
2021/05/28 04:40:16;;;;;;;7.40;4.70;;;11.30;37.50;;;;;;5087644;28;20803;-72
2021/05/28 04:42:41;;;;;;;6.33;5.73;;;11.30;38.40;;;;;;5093169;28;20175;-72
2021/05/28 04:45:07;;;;;;;4.50;4.10;;;11.20;38.30;;;;;;5092993;28;20448;-72
2021/05/28 04:47:32;;;;;;;5.20;4.80;;;11.30;38.70;;;;;;5074701;28;20249;-73
2021/05/28 04:49:59;;;;;;;5.40;4.90;;;11.40;38.20;;;;;;5092923;28;20249;-72
2021/05/28 04:52:24;;;;;;;5.03;4.33;;;11.60;37.90;;;;;;5093097;28;20184;-71
2021/05/28 04:54:50;;;;;;;4.90;4.50;;;11.80;37.80;;;;;;5096538;28;20856;-72
2021/05/28 04:57:16;;;;;;;4.10;3.73;;;12.70;35.60;;;;;;5092871;28;20207;-72
2021/05/28 04:59:41;;;;;;;6.37;4.97;;;14.00;32.00;;;;;;5092622;28;20170;-73
2021/05/28 05:02:08;;;;;;;5.10;4.60;;;15.00;26.70;;;;;;5075049;28;20625;-72
2021/05/28 05:04:33;;;;;;;4.83;3.90;;;15.60;24.80;;;;;;5096158;28;20246;-73
2021/05/28 05:06:59;;;;;;;5.30;4.30;;;15.70;24.30;;;;;;5094538;28;20439;-72
2021/05/28 05:09:24;;;;;;;5.63;5.13;;;15.60;24.50;;;;;;5092670;28;20214;-73
2021/05/28 05:11:50;;;;;;;5.93;5.40;;;15.30;25.00;;;;;;5092729;28;20183;-73
2021/05/28 05:16:50;;;;;;;7.43;5.47;;;15.00;25.60;;;;;;5091872;28;20481;-72
2021/05/28 05:19:15;;;;;;;6.20;5.67;;;14.80;25.80;;;;;;5094254;28;20556;-72
2021/05/28 05:21:41;;;;;;;6.93;6.33;;;14.80;25.90;;;;;;5094948;28;20183;-71
2021/05/28 05:24:08;;;;;;;6.50;6.00;;;14.80;25.90;;;;;;5095636;28;20201;-71
2021/05/28 05:26:34;;;;;;;8.00;6.80;;;14.80;25.90;;;;;;5113166;28;20579;-72
2021/05/28 05:29:00;;;;;;;6.80;6.40;;;14.90;25.80;;;;;;5103961;28;20464;-72
2021/05/28 05:31:26;;;;;;;7.23;6.60;;;15.00;25.20;;;;;;5092407;28;20195;-73
2021/05/28 05:33:52;;;;;;;8.40;7.80;;;14.90;25.90;;;;;;5074317;28;20419;-73
2021/05/28 05:36:17;;;;;;;8.37;7.80;;;14.80;25.90;;;;;;5109794;28;20805;-73
2021/05/28 05:38:43;;;;;;;8.47;7.53;;;14.80;25.90;;;;;;5112948;28;20424;-74
2021/05/28 05:41:09;;;;;;;6.67;6.07;;;14.80;26.30;;;;;;5112999;28;20713;-76
2021/05/28 05:43:34;;;;;;;11.47;8.70;;;14.80;25.90;;;;;;5113081;28;20179;-74
2021/05/28 05:46:01;;;;;;;11.00;8.83;;;14.70;25.80;;;;;;5112941;28;20199;-74
2021/05/28 05:48:27;;;;;;;8.90;8.10;;;14.60;26.30;;;;;;5112080;28;20204;-74
2021/05/28 05:50:53;;;;;;;9.07;8.17;;;14.70;26.70;;;;;;5112686;28;20435;-74
2021/05/28 05:53:18;;;;;;;8.33;7.63;;;15.30;26.20;;;;;;5112758;28;20218;-73
2021/05/28 05:55:44;;;;;;;8.80;8.07;;;15.90;24.30;;;;;;5112774;28;20211;-73
2021/05/28 05:58:09;;;;;;;11.00;9.47;;;16.80;23.00;;;;;;5094408;28;20173;-73
2021/05/28 06:00:35;;;;;;;8.90;8.20;;;17.50;21.30;;;;;;5094347;28;20180;-73
2021/05/28 06:03:00;;;;;;;9.37;8.77;;;17.60;20.90;;;;;;5100422;28;20654;-74
2021/05/28 06:05:26;;;;;;;10.30;9.40;;;17.30;20.90;;;;;;5091783;28;20209;-74
2021/05/28 06:07:51;;;;;;;9.23;8.40;;;17.40;21.10;;;;;;5091932;28;20212;-74
2021/05/28 06:10:17;;;;;;;7.43;6.83;;;17.30;21.40;;;;;;5073601;28;20173;-74
2021/05/28 06:12:42;;;;;;;6.60;6.03;;;17.10;22.20;;;;;;5074170;28;20237;-74
2021/05/28 06:15:08;;;;;;;6.00;5.60;;;16.90;22.30;;;;;;5092253;28;20266;-74
2021/05/28 06:17:34;;;;;;;6.53;6.13;;;16.90;23.10;;;;;;5092072;28;20551;-73
2021/05/28 06:19:59;;;;;;;7.90;7.10;;;16.90;23.00;;;;;;5073527;28;20181;-72
2021/05/28 06:22:25;;;;;;;7.13;6.53;;;16.80;23.00;;;;;;5074078;28;20184;-72
2021/05/28 06:24:51;;;;;;;7.57;7.00;;;16.90;23.10;;;;;;5107738;28;20197;-72
2021/05/28 06:27:17;;;;;;;8.23;7.40;;;17.20;22.40;;;;;;5093969;28;20184;-72
2021/05/28 06:29:43;;;;;;;6.87;6.30;;;;;;;;;;5093895;28;20923;-72
2021/05/28 06:32:09;;;;;;;7.17;6.57;;;18.80;20.50;;;;;;5116298;28;20173;-72
2021/05/28 06:34:35;;;;;;;8.40;7.70;;;20.10;17.70;;;;;;5117531;28;20445;-72
2021/05/28 06:37:01;;;;;;;7.00;6.60;;;20.70;16.10;;;;;;5116371;28;20180;-72
2021/05/28 06:39:27;;;;;;;7.80;7.30;;;21.90;14.70;;;;;;5111130;28;20180;-72
2021/05/28 06:41:53;;;;;;;8.67;8.27;;;23.10;11.50;;;;;;5089267;28;20946;-72
2021/05/28 06:44:23;;;;;;;8.70;8.10;;;22.60;10.30;;;;;;5118155;28;20710;-72
2021/05/28 06:46:53;;;;;;;8.93;8.43;;;21.50;12.80;;;;;;5100086;28;20522;-72
2021/05/28 06:49:20;;;;;;;8.70;8.20;;;21.20;13.10;;;;;;5096364;28;20455;-72
2021/05/28 06:51:46;;;;;;;8.87;8.37;;;20.90;13.60;;;;;;5094533;28;20908;-73
2021/05/28 06:54:12;;;;;;;10.87;10.10;;;20.90;14.40;;;;;;5095193;28;20403;-72
2021/05/28 06:56:38;;;;;;;10.33;9.67;;;20.30;14.20;;;;;;5100132;28;20941;-71
2021/05/28 06:59:08;;;;;;;11.17;10.50;;;20.00;14.50;;;;;;5094852;28;21024;-72
2021/05/28 07:01:35;;;;;;;10.50;9.90;;;19.60;14.70;;;;;;5089081;28;20426;-72
2021/05/28 07:04:02;;;;;;;10.30;9.60;;;19.10;15.90;;;;;;5092899;28;20434;-71
2021/05/28 07:06:28;;;;;;;10.30;9.70;;;18.90;16.00;;;;;;5085235;28;20443;-72
2021/05/28 07:08:54;;;;;;;9.77;9.17;;;18.40;17.60;;;;;;5091551;28;20604;-72
2021/05/28 07:11:20;;;;;;;10.30;9.50;;;18.60;16.70;;;;;;5092549;28;20898;-71
2021/05/28 07:13:45;;;;;;;10.60;9.80;;;19.10;16.30;;;;;;5075215;28;20531;-72
2021/05/28 07:16:11;;;;;;;11.03;9.83;;;19.60;15.80;;;;;;5093302;28;20718;-72
2021/05/28 07:18:36;;;;;;;10.00;9.50;;;19.90;15.60;;;;;;5092840;28;20193;-71
2021/05/28 07:21:02;;;;;;;10.00;9.50;;;20.60;14.40;;;;;;5072650;28;20260;-71
2021/05/28 07:23:29;;;;;;;10.60;10.00;;;21.10;14.10;;;;;;5096362;28;20188;-71
2021/05/28 07:25:55;;;;;;;11.20;10.60;;;21.60;13.40;;;;;;5110084;28;20438;-71
2021/05/28 07:28:21;;;;;;;10.17;9.67;;;21.80;12.80;;;;;;5109768;28;20453;-72
2021/05/28 07:30:47;;;;;;;11.10;10.60;;;21.60;12.10;;;;;;5112965;28;20425;-72
2021/05/28 07:33:13;;;;;;;10.93;10.23;;;21.30;12.30;;;;;;5111492;28;20183;-71
2021/05/28 07:35:39;;;;;;;12.27;11.47;;;20.80;12.60;;;;;;5105878;28;20915;-72
2021/05/28 07:38:04;;;;;;;12.30;11.60;;;20.50;12.90;;;;;;5109518;28;20909;-72
2021/05/28 07:40:30;;;;;;;11.27;10.67;;;20.20;13.50;;;;;;5110551;28;20710;-72
2021/05/28 07:42:56;;;;;;;11.57;10.77;;;20.00;14.00;;;;;;5092722;28;20793;-72
2021/05/28 07:45:21;;;;;;;10.53;10.03;;;19.90;14.20;;;;;;5092710;28;20204;-72
2021/05/28 07:47:47;;;;;;;10.63;10.13;;;19.80;14.60;;;;;;5091613;28;20619;-72
2021/05/28 07:50:13;;;;;;;11.30;10.70;;;20.20;15.00;;;;;;5110908;28;20175;-71
2021/05/28 07:52:38;;;;;;;12.00;11.50;;;21.10;12.80;;;;;;5110946;28;20237;-71
2021/05/28 07:55:04;;;;;;;11.20;10.70;;;21.90;11.80;;;;;;5088968;28;20210;-71
2021/05/28 07:57:30;;;;;;;12.00;11.40;;;22.10;11.20;;;;;;5091332;28;20180;-72
2021/05/28 07:59:55;;;;;;;12.57;11.60;;;22.30;11.60;;;;;;5110305;28;20918;-72
2021/05/28 08:02:21;;;;;;;12.67;11.97;;;22.10;11.90;;;;;;5110723;28;20225;-72
2021/05/28 08:04:47;;;;;;;12.73;12.13;;;21.70;12.20;;;;;;5110929;28;20242;-71
2021/05/28 08:07:12;;;;;;;12.83;12.13;;;21.30;12.30;;;;;;5091798;28;20234;-72
2021/05/28 08:09:38;;;;;;;13.10;12.27;;;20.80;12.70;;;;;;5092220;28;20249;-72
2021/05/28 08:12:04;;;;;;;13.30;12.70;;;20.30;12.70;;;;;;5112931;28;20172;-72
2021/05/28 08:14:29;;;;;;;12.60;12.00;;;19.90;13.80;;;;;;5094092;28;20176;-72
2021/05/28 08:16:55;;;;;;;12.80;12.10;;;19.50;14.60;;;;;;5111776;28;20427;-72
2021/05/28 08:19:21;;;;;;;13.20;12.50;;;18.90;15.80;;;;;;5112944;28;20164;-72
2021/05/28 08:21:46;;;;;;;12.63;11.97;;;18.50;16.20;;;;;;5112808;28;20183;-72
2021/05/28 08:24:12;;;;;;;14.47;13.57;;;18.50;15.70;;;;;;5112574;28;20277;-71
2021/05/28 08:26:38;;;;;;;12.47;11.87;;;18.50;15.50;;;;;;5097760;28;20646;-71
2021/05/28 08:29:05;;;;;;;12.60;11.90;;;18.70;15.70;;;;;;5096790;28;20196;-71
2021/05/28 08:31:31;;;;;;;12.97;11.90;;;18.90;15.40;;;;;;5114334;28;20630;-71
2021/05/28 08:33:56;;;;;;;11.50;10.90;;;19.30;14.90;;;;;;5099331;28;20468;-71
2021/05/28 08:36:22;;;;;;;12.27;11.57;;;19.60;15.60;;;;;;5098738;28;20199;-71
2021/05/28 08:38:47;;;;;;;12.43;11.83;;;19.90;14.70;;;;;;5113917;28;20255;-71
2021/05/28 08:41:15;;;;;;;12.23;11.63;;;19.90;14.00;;;;;;5113828;28;20644;-71
2021/05/28 08:43:44;;;;;;;13.23;12.53;;;19.60;15.40;;;;;;5095774;28;20229;-71
2021/05/28 08:46:16;;;;;;;12.33;11.73;;;19.40;14.40;;;;;;5113237;28;20438;-71
2021/05/28 08:48:42;;;;;;;13.60;12.90;;;19.40;14.60;;;;;;5113337;28;20450;-71
2021/05/28 08:51:08;;;;;;;13.20;12.50;;;19.10;13.60;;;;;;5095319;28;20422;-71
2021/05/28 08:53:34;;;;;;;12.00;11.40;;;19.20;14.70;;;;;;5095242;28;20172;-71
2021/05/28 08:55:59;;;;;;;12.70;11.90;;;19.30;14.80;;;;;;5112843;28;20425;-71
2021/05/28 08:58:26;;;;;;;12.77;12.07;;;19.40;14.00;;;;;;5113795;28;20682;-71
2021/05/28 09:00:52;;;;;;;13.00;12.00;;;19.40;13.20;;;;;;5113736;28;20201;-72
2021/05/28 09:03:29;;;;;;;12.83;12.23;;;19.20;13.80;;;;;;5095000;28;20479;-74
2021/05/28 09:06:15;;;;;;;12.07;11.40;;;19.10;13.80;;;;;;5087384;28;20571;-72
2021/05/28 09:08:40;;;;;;;12.70;12.07;;;19.50;14.70;;;;;;5104505;28;20488;-72
2021/05/28 09:11:07;;;;;;;12.33;11.70;;;19.70;14.30;;;;;;5109804;28;20423;-72
2021/05/28 09:13:34;;;;;;;12.00;11.30;;;19.80;14.00;;;;;;5093044;28;20173;-72
2021/05/28 09:16:09;;;;;;;11.93;11.23;;;19.60;14.10;;;;;;5123599;27;20544;-72
2021/05/28 09:18:47;;;;;;;12.03;11.43;;;19.30;14.20;;;;;;5110509;28;20457;-71
2021/05/28 09:21:31;;;;;;;12.60;11.97;;;18.90;15.20;;;;;;5095490;28;20910;-72
2021/05/28 09:24:00;;;;;;;13.53;11.10;;;19.00;14.30;;;;;;5091641;28;20514;-71
2021/05/28 09:26:27;;;;;;;12.60;11.80;;;19.50;14.40;;;;;;5077948;28;20459;-72
2021/05/28 09:28:56;;;;;;;11.43;10.93;;;19.50;13.90;;;;;;5092748;28;20892;-71
2021/05/28 09:31:27;;;;;;;12.80;12.23;;;19.50;14.30;;;;;;5092549;28;20762;-72
2021/05/28 09:33:55;;;;;;;12.97;12.27;;;19.70;15.00;;;;;;5074900;28;20450;-71
2021/05/28 09:36:22;;;;;;;13.53;12.83;;;19.90;13.60;;;;;;5093346;28;20808;-72
2021/05/28 09:39:12;;;;;;;14.17;13.40;;;20.10;12.10;;;;;;5092395;28;20980;-72
2021/05/28 09:41:51;;;;;;;12.77;12.17;;;20.30;11.60;;;;;;5092693;28;20426;-72
2021/05/28 09:44:25;;;;;;;13.83;12.70;;;20.50;12.10;;;;;;5074526;28;20886;-72
2021/05/28 09:46:57;;;;;;;13.83;13.00;;;20.40;11.70;;;;;;5107660;28;20426;-72
2021/05/28 09:49:25;;;;;;;13.30;12.60;;;20.40;12.30;;;;;;5094446;28;20462;-73
2021/05/28 09:52:02;;;;;;;13.27;12.57;;;19.30;12.00;;;;;;5112873;28;20438;-72
2021/05/28 09:54:28;;;;;;;13.13;12.43;;;19.30;12.60;;;;;;5094302;28;20436;-73
2021/05/28 09:56:54;;;;;;;12.90;12.20;;;18.70;13.50;;;;;;5093510;28;20567;-72
2021/05/28 09:59:19;;;;;;;12.77;12.17;;;18.30;14.70;;;;;;5091385;28;20265;-71
2021/05/28 10:01:56;;;;;;;12.67;12.07;;;17.90;15.10;;;;;;5092922;28;20279;-73
2021/05/28 10:04:22;;;;;;;13.93;13.13;;;17.70;15.20;;;;;;5111859;28;20250;-72
2021/05/28 10:06:49;;;;;;;12.87;12.17;;;17.40;16.30;;;;;;5111487;28;21095;-72
2021/05/28 10:09:15;;;;;;;12.77;12.17;;;17.30;16.70;;;;;;5080699;28;20469;-72
2021/05/28 10:11:41;;;;;;;12.87;12.07;;;17.30;17.30;;;;;;5111210;28;20414;-72
2021/05/28 10:14:08;;;;;;;11.83;11.27;;;17.10;17.00;;;;;;5111109;28;20505;-71
2021/05/28 10:16:34;;;;;;;13.10;11.90;;;17.10;17.50;;;;;;5099647;28;20459;-71
2021/05/28 10:19:00;;;;;;;12.90;11.87;;;16.90;17.60;;;;;;5073547;28;20423;-71
2021/05/28 10:21:26;;;;;;;11.60;10.80;;;17.00;17.60;;;;;;5095037;28;20533;-72
2021/05/28 10:23:53;;;;;;;12.30;11.60;;;17.20;17.40;;;;;;5096630;28;20180;-72
2021/05/28 10:26:32;;;;;;;11.20;10.60;;;17.30;16.20;;;;;;5114059;28;20449;-72
2021/05/28 10:28:57;;;;;;;12.70;12.00;;;17.70;16.70;;;;;;5116427;28;20487;-73
2021/05/28 10:31:58;;;;;;;12.33;11.60;;;18.00;15.20;;;;;;5097889;28;20422;-73
2021/05/28 10:34:29;;;;;;;12.83;12.00;;;18.30;14.10;;;;;;5107726;28;20204;-73
2021/05/28 10:36:57;;;;;;;13.93;13.03;;;18.50;14.30;;;;;;5118390;28;20467;-73
2021/05/28 10:39:24;;;;;;;12.87;12.27;;;;;;;;;;5113047;28;20497;-73
2021/05/28 10:41:55;;;;;;;13.30;12.40;;;19.30;13.00;;;;;;5113675;28;20434;-73
2021/05/28 10:44:37;;;;;;;13.83;13.13;;;19.50;12.80;;;;;;5094904;28;20422;-73
2021/05/28 10:47:12;;;;;;;14.10;13.10;;;19.60;11.80;;;;;;5112621;28;20449;-74
2021/05/28 10:49:47;;;;;;;14.30;13.20;;;19.40;11.70;;;;;;5113640;28;20521;-74
2021/05/28 10:52:36;;;;;;;13.30;12.60;;;19.40;12.70;;;;;;5096002;28;20432;-74
2021/05/28 10:55:07;;;;;;;13.33;12.60;;;19.30;13.00;;;;;;5115187;28;20434;-73
2021/05/28 10:57:35;;;;;;;13.10;12.50;;;18.80;13.60;;;;;;5097132;28;20962;-74
2021/05/28 11:00:05;;;;;;;12.87;12.27;;;18.70;13.20;;;;;;5093277;28;20431;-73
2021/05/28 11:02:48;;;;;;;13.50;12.80;;;18.40;14.20;;;;;;5093511;28;20407;-73
2021/05/28 11:05:16;;;;;;;12.60;12.00;;;18.20;13.70;;;;;;5092786;28;20892;-73
2021/05/28 11:07:44;;;;;;;13.77;13.07;;;18.40;14.00;;;;;;5092536;28;20550;-73
2021/05/28 11:10:25;;;;;;;14.27;13.00;;;18.30;13.60;;;;;;5091737;28;20408;-73
2021/05/28 11:12:53;;;;;;;14.10;13.27;;;18.50;13.10;;;;;;5073936;28;20453;-74
2021/05/28 11:15:27;;;;;;;13.40;12.70;;;19.00;13.50;;;;;;5091771;28;20944;-72
2021/05/28 11:18:02;;;;;;;14.23;13.47;;;19.20;13.00;;;;;;5098476;28;20425;-72
2021/05/28 11:20:38;;;;;;;14.10;13.30;;;18.90;12.90;;;;;;5102201;28;20431;-72
2021/05/28 11:23:23;;;;;;;15.33;14.30;;;18.70;13.50;;;;;;5102970;28;20421;-72
2021/05/28 11:25:51;;;;;;;13.30;12.70;;;18.30;14.00;;;;;;5093121;28;20442;-72
2021/05/28 11:28:17;;;;;;;13.47;12.70;;;17.90;15.10;;;;;;5077470;28;20466;-72
2021/05/28 11:30:50;;;;;;;14.20;13.00;;;17.80;15.00;;;;;;5088628;28;20466;-72
2021/05/28 11:33:42;;;;;;;13.37;12.57;;;17.70;15.00;;;;;;5090618;28;20422;-73
2021/05/28 11:36:27;;;;;;;13.30;12.60;;;17.40;14.80;;;;;;5083177;28;20534;-72
2021/05/28 11:39:04;;;;;;;13.33;12.73;;;17.60;14.90;;;;;;5073648;28;20454;-73
2021/05/28 11:41:48;;;;;;;13.13;12.53;;;17.70;14.20;;;;;;5073023;28;20414;-72
2021/05/28 11:44:20;;;;;;;13.30;12.60;;;17.90;14.60;;;;;;5091537;28;20415;-72
2021/05/28 11:46:48;;;;;;;13.60;13.00;;;18.10;14.40;;;;;;5086778;28;20410;-73
2021/05/28 11:49:18;;;;;;;13.23;12.63;;;18.40;13.60;;;;;;5100747;28;20459;-72
2021/05/28 11:51:44;;;;;;;15.00;14.20;;;18.40;13.70;;;;;;5077041;28;20415;-73
2021/05/28 11:54:25;;;;;;;13.53;12.90;;;18.60;13.00;;;;;;5095185;28;20408;-73
2021/05/28 11:57:01;;;;;;;17.50;15.20;;;18.70;13.10;;;;;;5105929;28;20825;-72
2021/05/28 11:59:51;;;;;;;13.17;12.47;;;18.20;12.80;;;;;;5115678;28;20523;-72
2021/05/28 12:02:35;;;;;;;14.07;13.30;;;18.00;13.60;;;;;;5116006;28;20445;-73
2021/05/28 12:05:02;;;;;;;12.77;12.10;;;17.90;13.70;;;;;;5115790;28;20426;-73
2021/05/28 12:07:28;;;;;;;14.57;13.77;;;18.00;13.50;;;;;;5099623;28;20423;-73
2021/05/28 12:10:06;;;;;;;14.40;13.40;;;18.40;14.10;;;;;;5094494;28;20438;-72
2021/05/28 12:12:50;;;;;;;13.40;12.80;;;18.70;13.10;;;;;;5076974;28;20816;-73
2021/05/28 12:15:17;;;;;;;14.27;13.57;;;18.40;13.40;;;;;;5076848;28;20538;-73
2021/05/28 12:17:43;;;;;;;13.47;12.87;;;18.00;13.70;;;;;;5095048;28;20427;-73
2021/05/28 12:20:21;;;;;;;15.37;14.47;;;17.80;14.00;;;;;;5076472;28;20415;-72
2021/05/28 12:23:08;;;;;;;13.33;12.73;;;17.50;14.60;;;;;;5095419;28;20176;-72
2021/05/28 12:25:40;;;;;;;13.13;12.53;;;17.20;14.60;;;;;;5081857;28;20450;-72
2021/05/28 12:28:14;;;;;;;14.33;13.43;;;17.40;14.80;;;;;;5102845;28;20464;-72
2021/05/28 12:30:41;;;;;;;12.57;11.97;;;17.40;14.20;;;;;;5096572;28;20422;-73
2021/05/28 12:33:08;;;;;;;14.03;13.23;;;17.50;14.30;;;;;;5114640;28;20402;-73
2021/05/28 12:35:34;;;;;;;15.00;14.30;;;17.50;14.10;;;;;;5114238;28;20484;-72
2021/05/28 12:38:08;;;;;;;13.37;12.77;;;17.80;13.10;;;;;;5094346;28;20941;-72
2021/05/28 12:40:34;;;;;;;15.40;14.20;;;18.00;14.30;;;;;;5075278;28;20424;-72
2021/05/28 12:43:00;;;;;;;15.03;13.90;;;18.10;12.70;;;;;;5093616;28;20465;-72
2021/05/28 12:45:36;;;;;;;15.23;14.07;;;18.30;12.40;;;;;;5093568;28;20576;-73
2021/05/28 12:48:03;;;;;;;15.60;14.80;;;18.50;13.00;;;;;;5098869;28;20458;-71
2021/05/28 12:50:34;;;;;;;13.70;13.03;;;18.10;12.80;;;;;;5093356;28;20506;-72
2021/05/28 12:53:02;;;;;;;13.20;12.60;;;17.80;12.60;;;;;;5093578;28;20907;-73